Time;durP1;ratioP1;P1;durP2;ratioP2;P2;SDS_P1;SDS_P2;PMS_P1;PMS_P2;Temp;Humidity;BMP_temperature;BMP_pressure;BME280_temperature;BME280_humidity;BME280_pressure;Samples;Min_cycle;Max_cycle;Signal;HPM_P1;HPM_P2
2024/02/11 00:01:40;;;;;;;;;;;;;;;1.33;100.00;99370.16;87161;269;136871;-74
2024/02/11 00:03:42;;;;;;;23.10;13.30;;;;;;;1.32;100.00;99366.41;87418;270;24001;-75
2024/02/11 00:05:44;;;;;;;24.00;14.20;;;;;;;1.25;100.00;99374.68;87091;272;136809;-74
2024/02/11 00:07:46;;;;;;;21.80;14.60;;;;;;;1.18;100.00;99377.15;87193;287;25203;-75
2024/02/11 00:09:48;;;;;;;20.00;13.60;;;;;;;1.09;100.00;99382.70;87214;266;136907;-76
2024/02/11 00:11:51;;;;;;;22.40;14.30;;;;;;;1.05;100.00;99374.55;87349;273;22601;-78
2024/02/11 00:13:53;;;;;;;28.10;15.70;;;;;;;1.04;100.00;99365.94;87216;269;136737;-77
2024/02/11 00:15:55;;;;;;;26.20;14.60;;;;;;;1.02;100.00;99369.95;87188;268;23458;-75
2024/02/11 00:17:57;;;;;;;24.50;15.30;;;;;;;1.02;100.00;99373.61;87177;266;136593;-79
2024/02/11 00:20:00;;;;;;;22.90;14.40;;;;;;;1.02;100.00;99376.09;87288;269;22613;-77
2024/02/11 00:22:02;;;;;;;25.50;15.20;;;;;;;1.02;100.00;99375.73;87167;275;138493;-76
2024/02/11 00:24:04;;;;;;;26.10;14.80;;;;;;;1.01;100.00;99374.75;87190;276;136774;-77
2024/02/11 00:26:07;;;;;;;25.20;15.50;;;;;;;1.02;100.00;99365.21;87304;270;25233;-77
2024/02/11 00:28:09;;;;;;;20.00;14.30;;;;;;;1.06;100.00;99369.05;87261;278;136474;-76
2024/02/11 00:30:11;;;;;;;22.00;12.90;;;;;;;1.11;100.00;99371.55;87249;268;22757;-80
2024/02/11 00:32:13;;;;;;;24.40;14.80;;;;;;;1.13;100.00;99362.02;87087;273;137040;-77
2024/02/11 00:34:16;;;;;;;24.90;15.50;;;;;;;1.16;100.00;99359.81;87266;270;22531;-74
2024/02/11 00:36:19;;;;;;;24.70;15.00;;;;;;;1.19;100.00;99361.50;87186;270;138456;-75
2024/02/11 00:38:20;;;;;;;27.20;13.90;;;;;;;1.21;100.00;99363.39;87317;271;22563;-77
2024/02/11 00:40:22;;;;;;;23.60;13.20;;;;;;;1.22;100.00;99366.23;87122;267;137184;-76
2024/02/11 00:42:27;;;;;;;19.80;12.40;;;;;;;1.22;100.00;99367.81;87188;268;22519;-75
2024/02/11 00:44:31;;;;;;;28.40;12.00;;;;;;;1.22;100.00;99364.15;87258;265;137051;-76
2024/02/11 00:46:34;;;;;;;18.20;12.30;;;;;;;1.23;100.00;99357.25;87156;269;22627;-78
2024/02/11 00:48:36;;;;;;;18.10;11.80;;;;;;;1.22;100.00;99365.69;87372;269;136922;-75
2024/02/11 00:50:38;;;;;;;32.30;13.60;;;;;;;1.21;100.00;99365.11;87234;268;24914;-78
2024/02/11 00:52:41;;;;;;;21.20;14.10;;;;;;;1.21;100.00;99361.98;87095;276;136995;-76
2024/02/11 00:54:43;;;;;;;25.70;14.80;;;;;;;1.23;100.00;99359.54;87196;270;22665;-78
2024/02/11 00:56:45;;;;;;;23.50;12.90;;;;;;;1.26;100.00;99363.92;87076;269;137180;-75
2024/02/11 00:58:46;;;;;;;27.70;13.90;;;;;;;1.30;100.00;99364.00;87282;273;25181;-80
2024/02/11 01:00:49;;;;;;;25.00;14.50;;;;;;;1.32;100.00;99369.46;87139;270;136425;-78
2024/02/11 01:02:51;;;;;;;26.90;15.80;;;;;;;1.31;100.00;99376.15;87257;269;22546;-79
2024/02/11 01:04:53;;;;;;;27.10;13.60;;;;;;;1.31;100.00;99374.05;87170;262;137542;-80
2024/02/11 01:06:57;;;;;;;22.50;12.60;;;;;;;1.32;100.00;99373.47;87254;265;25103;-79
2024/02/11 01:08:59;;;;;;;27.30;13.00;;;;;;;1.34;100.00;99379.05;87305;271;136870;-77
2024/02/11 01:11:01;;;;;;;23.70;13.80;;;;;;;1.36;100.00;99374.25;87281;271;22562;-76
2024/02/11 01:13:04;;;;;;;31.10;13.00;;;;;;;1.37;100.00;99373.18;87202;269;137062;-76
2024/02/11 01:15:11;;;;;;;21.00;13.40;;;;;;;1.38;100.00;99372.23;87267;264;25122;-77
2024/02/11 01:17:12;;;;;;;17.50;12.80;;;;;;;1.39;100.00;99362.81;87339;267;136895;-77
2024/02/11 01:19:15;;;;;;;26.10;14.00;;;;;;;1.34;100.00;99370.44;87384;269;25076;-76
2024/02/11 01:21:17;;;;;;;28.20;13.40;;;;;;;1.30;100.00;99376.14;87194;273;137475;-74
2024/02/11 01:23:18;;;;;;;19.20;12.00;;;;;;;1.30;100.00;99383.29;87208;277;26316;-74
2024/02/11 01:25:21;;;;;;;24.50;13.00;;;;;;;1.27;100.00;99381.33;87334;264;137191;-74
2024/02/11 01:27:23;;;;;;;27.40;13.20;;;;;;;1.24;100.00;99380.41;88126;271;22531;-74
2024/02/11 01:29:25;;;;;;;30.10;13.60;;;;;;;1.21;100.00;99379.68;89727;274;136744;-73
2024/02/11 01:31:27;;;;;;;34.60;14.20;;;;;;;1.20;100.00;99379.57;88946;267;22581;-74
2024/02/11 01:33:28;;;;;;;24.40;13.30;;;;;;;1.22;100.00;99380.96;87643;268;136914;-74
2024/02/11 01:35:32;;;;;;;17.60;12.20;;;;;;;1.23;100.00;99385.60;87358;269;25162;-75
2024/02/11 01:37:34;;;;;;;22.50;13.60;;;;;;;1.22;100.00;99386.52;87304;272;137247;-75
2024/02/11 01:39:38;;;;;;;25.00;12.40;;;;;;;1.21;100.00;99385.23;87308;271;22572;-75
2024/02/11 01:41:40;;;;;;;22.20;12.20;;;;;;;1.22;100.00;99384.95;87296;277;136750;-74
2024/02/11 01:43:41;;;;;;;25.20;13.50;;;;;;;1.23;100.00;99381.70;87078;266;25134;-75
2024/02/11 01:45:45;;;;;;;17.90;12.20;;;;;;;1.21;100.00;99376.99;87210;273;136857;-77
2024/02/11 01:47:47;;;;;;;22.80;13.20;;;;;;;1.17;100.00;99378.13;87272;269;22984;-74
2024/02/11 01:49:49;;;;;;;22.60;12.30;;;;;;;1.13;100.00;99378.80;87435;271;137273;-74
2024/02/11 01:51:52;;;;;;;27.20;13.30;;;;;;;1.11;100.00;99373.61;87591;268;22580;-76
2024/02/11 01:53:55;;;;;;;17.90;12.00;;;;;;;1.10;100.00;99374.06;87478;271;136838;-76
2024/02/11 01:55:57;;;;;;;19.80;11.90;;;;;;;1.11;100.00;99376.95;87710;266;25210;-73
2024/02/11 01:58:00;;;;;;;21.90;12.90;;;;;;;1.10;100.00;99385.39;87305;277;137566;-73
2024/02/11 02:00:03;;;;;;;21.90;12.30;;;;;;;1.12;100.00;99372.52;87409;275;22657;-75
2024/02/11 02:02:13;;;;;;;20.10;11.50;;;;;;;1.14;100.00;99373.15;87795;276;22619;-77
2024/02/11 02:04:16;;;;;;;19.50;11.60;;;;;;;1.14;100.00;99377.19;87128;271;137052;-74
2024/02/11 02:06:18;;;;;;;22.30;13.50;;;;;;;1.12;100.00;99379.67;87314;273;25133;-75
2024/02/11 02:08:21;;;;;;;21.10;11.70;;;;;;;1.11;100.00;99382.91;87314;277;136381;-74
2024/02/11 02:10:23;;;;;;;20.90;12.30;;;;;;;1.11;100.00;99379.63;87694;269;25156;-74
2024/02/11 02:12:26;;;;;;;21.30;13.00;;;;;;;1.10;100.00;99376.86;87314;277;136732;-77
2024/02/11 02:14:28;;;;;;;21.00;12.60;;;;;;;1.11;100.00;99374.66;87218;274;25099;-75
2024/02/11 02:16:31;;;;;;;22.90;15.00;;;;;;;1.13;100.00;99387.25;87095;268;139665;-74
2024/02/11 02:18:34;;;;;;;22.10;13.50;;;;;;;1.16;100.00;99390.09;87284;260;27299;-76
2024/02/11 02:20:37;;;;;;;23.00;13.50;;;;;;;1.23;100.00;99388.55;87178;268;136963;-75
2024/02/11 02:22:40;;;;;;;25.50;14.20;;;;;;;1.28;100.00;99392.11;87189;274;24173;-78
2024/02/11 02:24:42;;;;;;;25.20;13.70;;;;;;;1.32;100.00;99393.23;87047;270;138202;-74
2024/02/11 02:26:44;;;;;;;23.40;14.00;;;;;;;1.36;100.00;99401.42;87181;270;23609;-76
2024/02/11 02:28:46;;;;;;;21.50;14.40;;;;;;;1.39;100.00;99404.54;87076;275;136773;-77
2024/02/11 02:30:48;;;;;;;23.80;14.60;;;;;;;1.38;100.00;99398.82;87176;273;26689;-79
2024/02/11 02:32:50;;;;;;;25.90;15.10;;;;;;;1.35;100.00;99393.64;87120;269;136830;-75
2024/02/11 02:34:53;;;;;;;25.00;15.00;;;;;;;1.36;100.00;99394.27;87386;273;24146;-76
2024/02/11 02:36:56;;;;;;;28.90;16.30;;;;;;;1.36;100.00;99394.73;87076;266;137015;-75
2024/02/11 02:38:58;;;;;;;24.70;14.70;;;;;;;1.37;100.00;99399.23;87234;268;24158;-74
2024/02/11 02:41:00;;;;;;;24.40;15.90;;;;;;;1.39;100.00;99394.91;87154;269;136848;-74
2024/02/11 02:43:09;;;;;;;22.60;15.10;;;;;;;1.39;100.00;99389.62;87199;270;23748;-74
2024/02/11 02:45:11;;;;;;;26.50;14.70;;;;;;;1.39;100.00;99381.42;87086;268;136807;-76
2024/02/11 02:47:13;;;;;;;23.60;14.10;;;;;;;1.39;100.00;99388.08;87150;277;24039;-74
2024/02/11 02:49:15;;;;;;;25.60;14.50;;;;;;;1.41;100.00;99390.23;87141;269;136665;-75
2024/02/11 02:51:18;;;;;;;21.30;12.60;;;;;;;1.42;100.00;99383.88;87181;266;22613;-73
2024/02/11 02:53:20;;;;;;;25.10;12.40;;;;;;;1.43;100.00;99379.98;87126;274;136459;-77
2024/02/11 02:55:22;;;;;;;31.10;13.80;;;;;;;1.40;100.00;99373.61;87138;270;23641;-75
2024/02/11 02:57:24;;;;;;;26.00;14.40;;;;;;;1.40;100.00;99374.50;87092;269;136494;-73
2024/02/11 02:59:26;;;;;;;20.50;12.20;;;;;;;1.40;100.00;99373.65;87222;277;24033;-76
2024/02/11 03:01:29;;;;;;;28.60;13.90;;;;;;;1.38;100.00;99371.86;87700;266;136395;-75
2024/02/11 03:03:32;;;;;;;22.00;15.10;;;;;;;1.34;100.00;99371.30;87300;270;24146;-75
2024/02/11 03:05:40;;;;;;;33.80;17.50;;;;;;;1.32;100.00;99376.07;87482;271;136910;-75
2024/02/11 03:07:44;;;;;;;33.20;18.20;;;;;;;1.33;100.00;99375.15;87360;273;23327;-75
2024/02/11 03:09:45;;;;;;;34.50;19.80;;;;;;;1.34;100.00;99375.35;87256;268;136872;-77
2024/02/11 03:11:49;;;;;;;40.20;20.00;;;;;;;1.36;100.00;99382.81;87164;273;23745;-74
2024/02/11 03:13:51;;;;;;;30.70;18.20;;;;;;;1.40;100.00;99387.46;87214;272;136266;-75
2024/02/11 03:15:53;;;;;;;30.80;17.00;;;;;;;1.43;100.00;99386.06;87344;262;24132;-75
2024/02/11 03:17:55;;;;;;;33.00;16.30;;;;;;;1.45;100.00;99393.22;86930;271;136930;-74
2024/02/11 03:19:58;;;;;;;26.40;16.40;;;;;;;1.47;100.00;99391.79;86904;268;22592;-73
2024/02/11 03:22:00;;;;;;;26.90;15.40;;;;;;;1.49;100.00;99389.98;87105;268;136854;-72
2024/02/11 03:24:04;;;;;;;30.00;16.70;;;;;;;1.43;100.00;99387.86;87141;266;22564;-74
2024/02/11 03:26:11;;;;;;;31.20;17.80;;;;;;;1.41;100.00;99390.45;87154;273;26195;-73
2024/02/11 03:28:13;;;;;;;29.00;18.60;;;;;;;1.41;100.00;99381.89;87117;271;138423;-73
2024/02/11 03:30:17;;;;;;;27.10;15.40;;;;;;;1.41;100.00;99386.95;87051;270;25259;-75
2024/02/11 03:32:18;;;;;;;30.10;18.00;;;;;;;1.42;100.00;99382.85;86953;264;138588;-74
2024/02/11 03:34:20;;;;;;;29.80;17.50;;;;;;;1.43;100.00;99381.22;87189;269;25294;-75
2024/02/11 03:36:24;;;;;;;26.80;16.80;;;;;;;1.47;100.00;99381.23;87279;269;137236;-75
2024/02/11 03:38:26;;;;;;;33.20;16.30;;;;;;;1.53;100.00;99381.20;87234;271;25115;-75
2024/02/11 03:40:28;;;;;;;25.10;14.90;;;;;;;1.54;100.00;99386.30;87109;269;136705;-75
2024/02/11 03:42:30;;;;;;;27.90;15.40;;;;;;;1.56;100.00;99383.19;87214;268;25249;-76
2024/02/11 03:44:32;;;;;;;25.00;14.60;;;;;;;1.58;100.00;99384.71;87454;266;137608;-75
2024/02/11 03:46:34;;;;;;;25.10;15.40;;;;;;;1.60;100.00;99380.72;89661;269;22557;-76
2024/02/11 03:48:38;;;;;;;23.60;14.60;;;;;;;1.60;100.00;99381.22;88709;277;136583;-73
2024/02/11 03:50:41;;;;;;;23.70;14.50;;;;;;;1.61;100.00;99376.85;87429;269;22754;-74
2024/02/11 03:52:44;;;;;;;22.10;13.80;;;;;;;1.61;100.00;99379.84;87508;279;136888;-76
2024/02/11 03:54:46;;;;;;;23.50;16.00;;;;;;;1.58;100.00;99381.19;87556;273;25245;-73
2024/02/11 03:56:47;;;;;;;21.40;12.90;;;;;;;1.56;100.00;99379.31;87249;269;137190;-73
2024/02/11 03:58:50;;;;;;;27.10;15.50;;;;;;;1.53;100.00;99376.50;87209;269;24032;-73
2024/02/11 04:00:52;;;;;;;23.00;13.80;;;;;;;1.52;100.00;99379.86;87156;273;136887;-73
2024/02/11 04:02:54;;;;;;;24.90;14.70;;;;;;;1.52;100.00;99376.75;87094;271;22806;-73
2024/02/11 04:04:56;;;;;;;20.50;13.80;;;;;;;1.52;100.00;99380.36;87029;271;136921;-73
2024/02/11 04:06:59;;;;;;;23.80;15.30;;;;;;;1.52;100.00;99380.91;87148;271;25233;-74
2024/02/11 04:09:01;;;;;;;24.70;14.60;;;;;;;1.53;100.00;99379.47;87061;268;137015;-71
2024/02/11 04:11:03;;;;;;;24.80;15.90;;;;;;;1.52;100.00;99382.73;87049;274;24056;-71
2024/02/11 04:13:09;;;;;;;22.60;13.40;;;;;;;1.50;100.00;99382.92;87571;266;137911;-74
2024/02/11 04:15:16;;;;;;;25.80;13.00;;;;;;;1.48;100.00;99378.02;87158;270;24156;-74
2024/02/11 04:17:20;;;;;;;24.90;15.00;;;;;;;1.46;100.00;99381.20;87269;276;136945;-73
2024/02/11 04:19:24;;;;;;;20.10;13.10;;;;;;;1.44;100.00;99389.67;87150;271;22564;-74
2024/02/11 04:21:32;;;;;;;21.80;13.70;;;;;;;1.42;100.00;99384.38;87115;277;137770;-70
2024/02/11 04:23:34;;;;;;;27.60;15.10;;;;;;;1.41;100.00;99386.29;87285;269;22558;-71
2024/02/11 04:25:39;;;;;;;23.00;14.40;;;;;;;1.40;100.00;99385.67;87040;269;137067;-72
2024/02/11 04:27:41;;;;;;;27.40;15.70;;;;;;;1.42;100.00;99379.21;87051;271;24149;-72
2024/02/11 04:29:44;;;;;;;21.70;14.90;;;;;;;1.43;100.00;99378.70;87140;276;137485;-72
2024/02/11 04:31:46;;;;;;;28.10;15.70;;;;;;;1.43;100.00;99376.24;86787;271;729688;-70
2024/02/11 04:33:51;;;;;;;29.80;15.90;;;;;;;1.43;100.00;99374.50;87020;271;136313;-73
2024/02/11 04:35:53;;;;;;;24.00;15.60;;;;;;;1.44;100.00;99373.20;87178;270;22694;-74
2024/02/11 04:37:55;;;;;;;22.60;14.60;;;;;;;1.44;100.00;99371.05;87046;266;137201;-73
2024/02/11 04:39:59;;;;;;;23.50;16.00;;;;;;;1.43;100.00;99377.71;87180;270;23998;-72
2024/02/11 04:42:02;;;;;;;28.30;15.80;;;;;;;1.40;100.00;99379.36;87383;274;136881;-72
2024/02/11 04:44:05;;;;;;;25.60;16.60;;;;;;;1.38;100.00;99375.19;86938;272;138345;-73
2024/02/11 04:46:09;;;;;;;30.10;17.00;;;;;;;1.37;100.00;99375.11;87310;269;25121;-71
2024/02/11 04:48:12;;;;;;;26.00;15.20;;;;;;;1.34;100.00;99368.23;87115;270;137162;-73
2024/02/11 04:50:16;;;;;;;23.20;16.00;;;;;;;1.32;100.00;99359.81;87383;275;25224;-74
2024/02/11 04:52:18;;;;;;;22.20;14.50;;;;;;;1.32;100.00;99364.34;87504;267;137441;-73
2024/02/11 04:54:21;;;;;;;24.40;15.40;;;;;;;1.33;100.00;99370.88;87282;269;24123;-74
2024/02/11 04:56:25;;;;;;;24.00;15.20;;;;;;;1.35;100.00;99374.19;87061;277;136661;-75
2024/02/11 04:58:29;;;;;;;22.20;15.00;;;;;;;1.36;100.00;99376.19;87350;267;24296;-73
2024/02/11 05:00:33;;;;;;;23.90;16.30;;;;;;;1.36;100.00;99373.27;87285;270;137138;-74
2024/02/11 05:02:37;;;;;;;23.80;15.20;;;;;;;1.37;100.00;99376.50;87221;268;25256;-73
2024/02/11 05:04:43;;;;;;;26.70;17.00;;;;;;;1.39;100.00;99374.03;87198;277;137076;-71
2024/02/11 05:06:46;;;;;;;21.30;13.80;;;;;;;1.40;100.00;99374.60;87289;272;22565;-73
2024/02/11 05:08:48;;;;;;;21.20;13.70;;;;;;;1.41;100.00;99370.98;87187;270;137286;-73
2024/02/11 05:10:52;;;;;;;22.10;13.20;;;;;;;1.40;100.00;99378.51;87162;270;22557;-72
2024/02/11 05:12:56;;;;;;;25.70;14.00;;;;;;;1.35;100.00;99380.54;87175;270;138085;-72
2024/02/11 05:14:58;;;;;;;16.30;11.20;;;;;;;1.32;100.00;99382.04;87274;278;25150;-72
2024/02/11 05:17:02;;;;;;;24.60;14.00;;;;;;;1.29;100.00;99386.18;87139;274;137349;-72
2024/02/11 05:19:05;;;;;;;23.00;13.40;;;;;;;1.28;100.00;99387.70;87137;273;25156;-72
2024/02/11 05:21:09;;;;;;;25.40;14.40;;;;;;;1.30;100.00;99386.14;87156;269;136870;-73
2024/02/11 05:23:11;;;;;;;25.70;15.40;;;;;;;1.32;100.00;99389.19;87324;273;22651;-72
2024/02/11 05:25:19;;;;;;;25.30;14.00;;;;;;;1.32;100.00;99394.24;87271;272;136924;-73
2024/02/11 05:27:21;;;;;;;27.50;15.10;;;;;;;1.31;100.00;99394.55;87254;274;25349;-74
2024/02/11 05:29:23;;;;;;;22.50;14.80;;;;;;;1.32;100.00;99389.88;87132;269;137148;-72
2024/02/11 05:31:26;;;;;;;23.50;13.80;;;;;;;1.33;100.00;99390.70;87189;269;22557;-74
2024/02/11 05:33:28;;;;;;;22.60;14.20;;;;;;;1.36;100.00;99390.07;87445;276;139139;-72
2024/02/11 05:35:37;;;;;;;21.90;15.30;;;;;;;1.41;100.00;99390.27;87242;278;25312;-73
2024/02/11 05:37:41;;;;;;;21.40;14.30;;;;;;;1.46;100.00;99395.03;87593;270;137825;-71
2024/02/11 05:39:44;;;;;;;29.10;16.10;;;;;;;1.49;100.00;99399.11;87188;275;22569;-72
2024/02/11 05:41:46;;;;;;;20.60;13.60;;;;;;;1.51;100.00;99400.13;87174;278;136400;-73
2024/02/11 05:43:48;;;;;;;25.00;15.20;;;;;;;1.51;100.00;99395.04;87142;271;22636;-74
2024/02/11 05:45:50;;;;;;;23.10;15.90;;;;;;;1.50;100.00;99394.27;87085;271;137542;-78
2024/02/11 05:47:53;;;;;;;22.30;15.60;;;;;;;1.48;100.00;99389.55;87705;270;23773;-72
2024/02/11 05:49:55;;;;;;;25.40;15.00;;;;;;;1.50;100.00;99392.17;87176;266;137028;-73
2024/02/11 05:51:57;;;;;;;27.20;17.10;;;;;;;1.52;100.00;99390.25;87213;269;22559;-73
2024/02/11 05:53:59;;;;;;;24.30;15.90;;;;;;;1.54;100.00;99392.79;87132;269;136926;-75
2024/02/11 05:56:04;;;;;;;24.10;15.30;;;;;;;1.55;100.00;99396.19;87555;270;22564;-74
2024/02/11 05:58:06;;;;;;;29.00;16.80;;;;;;;1.53;100.00;99398.70;87590;268;25089;-73
2024/02/11 06:00:13;;;;;;;28.70;16.00;;;;;;;1.52;100.00;99398.30;87632;265;136783;-72
2024/02/11 06:02:15;;;;;;;22.30;14.80;;;;;;;1.54;100.00;99395.10;88276;268;22553;-73
2024/02/11 06:04:17;;;;;;;26.80;16.90;;;;;;;1.59;100.00;99396.16;89280;270;136594;-74
2024/02/11 06:06:19;;;;;;;24.50;15.30;;;;;;;1.64;100.00;99398.18;88832;268;22644;-75
2024/02/11 06:08:22;;;;;;;27.90;15.60;;;;;;;1.63;100.00;99400.51;88030;276;136882;-75
2024/02/11 06:10:25;;;;;;;28.10;16.00;;;;;;;1.60;100.00;99393.43;87863;278;22651;-75
2024/02/11 06:12:27;;;;;;;26.20;16.20;;;;;;;1.57;100.00;99402.56;87610;278;137078;-71
2024/02/11 06:14:29;;;;;;;30.90;17.80;;;;;;;1.52;100.00;99399.17;87530;275;22528;-76
2024/02/11 06:16:31;;;;;;;26.70;15.60;;;;;;;1.50;100.00;99396.45;87499;268;136764;-76
2024/02/11 06:18:32;;;;;;;30.30;16.70;;;;;;;1.46;100.00;99395.49;87666;279;24026;-73
2024/02/11 06:20:34;;;;;;;27.40;17.50;;;;;;;1.43;100.00;99399.41;87667;270;136823;-74
2024/02/11 06:22:36;;;;;;;29.00;17.00;;;;;;;1.38;100.00;99398.78;87624;266;22552;-75
2024/02/11 06:24:38;;;;;;;27.70;17.30;;;;;;;1.34;100.00;99391.59;87470;271;136602;-75
2024/02/11 06:26:41;;;;;;;29.20;18.00;;;;;;;1.31;100.00;99393.34;87361;268;23956;-75
2024/02/11 06:28:43;;;;;;;28.40;17.40;;;;;;;1.29;100.00;99387.05;87451;270;138062;-72
2024/02/11 06:30:45;;;;;;;27.90;17.90;;;;;;;1.28;100.00;99382.56;87398;271;26338;-71
2024/02/11 06:32:53;;;;;;;30.60;19.10;;;;;;;1.30;100.00;99384.50;87210;266;137007;-72
2024/02/11 06:34:56;;;;;;;31.40;19.90;;;;;;;1.35;100.00;99381.40;87564;266;23956;-71
2024/02/11 06:36:58;;;;;;;31.40;19.80;;;;;;;1.39;100.00;99383.66;87113;273;136852;-73
2024/02/11 06:39:00;;;;;;;27.20;17.90;;;;;;;1.43;100.00;99379.23;87217;267;24154;-73
2024/02/11 06:41:03;;;;;;;25.20;16.40;;;;;;;1.48;100.00;99372.60;87042;271;138281;-73
2024/02/11 06:43:11;;;;;;;26.30;16.70;;;;;;;1.53;100.00;99378.54;87246;270;22564;-72
2024/02/11 06:45:14;;;;;;;27.80;18.40;;;;;;;1.58;100.00;99375.81;87123;271;137778;-73
2024/02/11 06:47:18;;;;;;;22.20;16.00;;;;;;;1.60;100.00;99366.11;87189;269;23752;-72
2024/02/11 06:49:23;;;;;;;26.30;17.00;;;;;;;1.61;100.00;99358.70;87084;273;137331;-73
2024/02/11 06:51:25;;;;;;;25.80;17.10;;;;;;;1.64;100.00;99368.20;87255;272;22574;-76
2024/02/11 06:53:29;;;;;;;27.20;16.60;;;;;;;1.64;100.00;99367.88;87198;273;136812;-73
2024/02/11 06:55:31;;;;;;;22.80;15.10;;;;;;;1.62;100.00;99371.20;87684;277;25185;-71
2024/02/11 06:57:33;;;;;;;22.50;15.60;;;;;;;1.61;100.00;99376.52;87130;268;136621;-75
2024/02/11 06:59:38;;;;;;;20.30;15.10;;;;;;;1.63;100.00;99374.29;87678;273;25191;-74
2024/02/11 07:01:41;;;;;;;22.50;16.10;;;;;;;1.63;100.00;99376.38;87355;276;136703;-76
2024/02/11 07:03:42;;;;;;;26.30;17.90;;;;;;;1.62;100.00;99380.01;87380;275;22576;-71
2024/02/11 07:05:46;;;;;;;29.00;20.00;;;;;;;1.62;100.00;99374.19;87466;271;136470;-77
2024/02/11 07:07:48;;;;;;;27.50;19.10;;;;;;;1.63;100.00;99378.31;87536;268;23706;-74
2024/02/11 07:09:51;;;;;;;27.60;18.20;;;;;;;1.67;100.00;99377.02;87755;269;136758;-77
2024/02/11 07:11:54;;;;;;;31.40;18.90;;;;;;;1.70;100.00;99376.30;87735;266;22578;-74
2024/02/11 07:13:56;;;;;;;24.90;18.10;;;;;;;1.71;100.00;99375.88;87635;278;138710;-73
2024/02/11 07:15:59;;;;;;;27.60;17.30;;;;;;;1.73;100.00;99388.16;87560;271;23797;-76
2024/02/11 07:18:01;;;;;;;28.20;19.50;;;;;;;1.74;100.00;99383.29;88002;275;136187;-74
2024/02/11 07:20:05;;;;;;;26.70;17.40;;;;;;;1.77;100.00;99387.73;87683;265;137071;-74
2024/02/11 07:22:08;;;;;;;26.20;18.80;;;;;;;1.80;100.00;99382.91;87870;267;22614;-76
2024/02/11 07:24:10;;;;;;;29.00;19.20;;;;;;;1.80;100.00;99386.27;87594;270;137192;-76
2024/02/11 07:26:12;;;;;;;29.40;18.80;;;;;;;1.80;100.00;99384.85;87082;276;24153;-75
2024/02/11 07:28:15;;;;;;;29.40;18.50;;;;;;;1.80;100.00;99382.91;87531;271;137261;-75
2024/02/11 07:30:19;;;;;;;29.10;18.90;;;;;;;1.78;100.00;99383.45;87745;275;24290;-75
2024/02/11 07:32:20;;;;;;;31.00;18.60;;;;;;;1.73;100.00;99393.23;87527;268;136738;-74
2024/02/11 07:34:22;;;;;;;25.10;19.10;;;;;;;1.69;100.00;99389.75;87688;264;23314;-77
2024/02/11 07:36:24;;;;;;;25.30;16.10;;;;;;;1.69;100.00;99386.39;87746;271;137092;-76
2024/02/11 07:38:26;;;;;;;31.70;20.30;;;;;;;1.70;100.00;99391.55;87593;274;26153;-79
2024/02/11 07:40:31;;;;;;;28.60;20.30;;;;;;;1.71;100.00;99394.48;87464;266;136797;-76
2024/02/11 07:42:32;;;;;;;30.80;19.90;;;;;;;1.67;100.00;99397.61;88042;270;26307;-74
2024/02/11 07:44:35;;;;;;;25.30;17.80;;;;;;;1.63;100.00;99413.98;87425;268;136702;-77
2024/02/11 07:46:37;;;;;;;27.10;18.00;;;;;;;1.58;100.00;99409.92;87239;272;22559;-75
2024/02/11 07:48:43;;;;;;;28.90;19.10;;;;;;;1.54;100.00;99420.48;87591;272;136460;-75
2024/02/11 07:50:45;;;;;;;29.10;17.80;;;;;;;1.53;100.00;99422.51;86980;272;25362;-75
2024/02/11 07:52:47;;;;;;;28.70;17.20;;;;;;;1.54;100.00;99424.87;87504;273;137704;-75
2024/02/11 07:54:50;;;;;;;25.70;18.70;;;;;;;1.54;100.00;99428.22;87615;274;22537;-75
2024/02/11 07:56:52;;;;;;;29.70;18.30;;;;;;;1.57;100.00;99430.91;87416;271;137631;-75
2024/02/11 07:58:54;;;;;;;26.20;18.10;;;;;;;1.55;100.00;99426.32;87663;274;22553;-76
2024/02/11 08:00:56;;;;;;;28.50;19.10;;;;;;;1.54;100.00;99423.92;87576;274;136590;-75
2024/02/11 08:02:59;;;;;;;32.50;20.90;;;;;;;1.51;100.00;99426.79;87625;278;24011;-75
2024/02/11 08:05:00;;;;;;;30.60;19.40;;;;;;;1.48;100.00;99429.36;87723;277;140151;-75
2024/02/11 08:07:03;;;;;;;31.60;21.30;;;;;;;1.48;100.00;99431.62;88026;268;25208;-75
2024/02/11 08:09:09;;;;;;;28.70;18.30;;;;;;;1.44;100.00;99437.10;87479;271;138152;-76
2024/02/11 08:11:10;;;;;;;31.70;20.40;;;;;;;1.44;100.00;99436.34;87874;269;22573;-76
2024/02/11 08:13:12;;;;;;;30.30;20.80;;;;;;;1.46;100.00;99438.83;87972;273;137017;-78
2024/02/11 08:15:15;;;;;;;28.30;19.10;;;;;;;1.48;100.00;99438.78;88121;270;22545;-76
2024/02/11 08:17:16;;;;;;;32.10;19.70;;;;;;;1.47;100.00;99441.83;87610;278;137639;-76
2024/02/11 08:19:19;;;;;;;33.60;20.70;;;;;;;1.43;100.00;99436.61;88130;275;22551;-75
2024/02/11 08:21:21;;;;;;;32.60;21.50;;;;;;;1.42;100.00;99440.04;88821;270;137180;-77
2024/02/11 08:23:27;;;;;;;35.00;20.60;;;;;;;1.42;100.00;99433.83;89482;265;22533;-76
2024/02/11 08:25:29;;;;;;;33.90;21.30;;;;;;;1.41;100.00;99439.77;88341;266;136539;-76
2024/02/11 08:27:32;;;;;;;35.20;21.30;;;;;;;1.46;100.00;99439.38;88292;266;22642;-77
2024/02/11 08:29:35;;;;;;;33.30;22.10;;;;;;;1.47;100.00;99441.66;87772;271;136780;-75
2024/02/11 08:33:51;;;;;;;30.90;20.20;;;;;;;1.36;100.00;99440.32;85355;302;604486;-76
2024/02/11 08:35:53;;;;;;;32.00;21.50;;;;;;;1.47;100.00;99435.34;86850;291;22564;-77
2024/02/11 08:37:57;;;;;;;37.70;21.50;;;;;;;1.53;100.00;99441.41;87301;275;135981;-74
2024/02/11 08:40:00;;;;;;;33.50;20.70;;;;;;;1.58;100.00;99440.60;87279;275;25232;-78
2024/02/11 08:42:05;;;;;;;33.60;21.40;;;;;;;1.63;100.00;99435.24;87505;269;25189;-78
2024/02/11 08:44:07;;;;;;;33.70;22.70;;;;;;;1.63;100.00;99434.33;87289;275;136071;-79
2024/02/11 08:46:11;;;;;;;33.20;22.40;;;;;;;1.65;100.00;99433.40;87308;280;22669;-77
2024/02/11 08:48:14;;;;;;;34.70;21.80;;;;;;;1.66;100.00;99426.09;86651;277;863826;-76
2024/02/11 08:50:16;;;;;;;32.50;21.10;;;;;;;1.70;100.00;99430.45;87632;277;22588;-75
2024/02/11 08:52:19;;;;;;;35.80;22.70;;;;;;;1.74;100.00;99429.86;87531;272;136494;-78
2024/02/11 08:54:21;;;;;;;35.10;21.40;;;;;;;1.78;100.00;99429.90;87750;271;22562;-75
2024/02/11 08:56:23;;;;;;;35.40;22.90;;;;;;;1.81;100.00;99429.91;87576;272;136522;-77
2024/02/11 08:58:26;;;;;;;32.60;20.70;;;;;;;1.80;100.00;99434.25;87558;272;22927;-79
2024/02/11 09:00:29;;;;;;;34.20;22.20;;;;;;;1.82;100.00;99429.77;87358;281;135936;-78
2024/02/11 09:02:32;;;;;;;32.90;20.70;;;;;;;1.86;100.00;99432.52;87576;272;25122;-79
2024/02/11 09:04:33;;;;;;;37.20;21.90;;;;;;;1.89;100.00;99431.19;87603;273;136499;-79
2024/02/11 09:06:35;;;;;;;30.30;19.60;;;;;;;1.92;100.00;99434.69;87724;264;25184;-80
2024/02/11 09:08:37;;;;;;;30.30;19.50;;;;;;;1.93;100.00;99438.67;87538;275;136413;-77
2024/02/11 09:10:39;;;;;;;31.60;21.50;;;;;;;1.97;100.00;99440.77;87631;273;25201;-78
2024/02/11 09:12:42;;;;;;;31.20;20.50;;;;;;;1.97;100.00;99440.53;87529;281;136714;-79
2024/02/11 09:14:46;;;;;;;29.90;19.20;;;;;;;1.97;100.00;99447.02;87542;272;23280;-78
2024/02/11 09:16:49;;;;;;;29.00;17.40;;;;;;;1.92;100.00;99449.96;87481;272;136220;-78
2024/02/11 09:18:51;;;;;;;30.10;18.20;;;;;;;1.92;100.00;99443.66;87624;272;22539;-80
2024/02/11 09:20:53;;;;;;;27.20;18.60;;;;;;;1.93;100.00;99439.59;87713;272;136276;-81
2024/02/11 09:22:54;;;;;;;33.30;21.10;;;;;;;1.93;100.00;99439.20;87938;277;22565;-77
2024/02/11 09:24:56;;;;;;;28.30;19.60;;;;;;;1.92;100.00;99451.24;87403;273;136861;-81
2024/02/11 09:26:58;;;;;;;29.00;20.90;;;;;;;1.88;100.00;99441.77;87823;276;23278;-80
2024/02/11 09:29:00;;;;;;;27.30;17.00;;;;;;;1.88;100.00;99443.54;87694;277;136024;-76
2024/02/11 09:31:02;;;;;;;27.10;18.00;;;;;;;1.87;100.00;99442.39;87769;268;24870;-77